sensor_id;sensor_type;location;lat;lon;timestamp;pressure;altitude;pressure_sealevel;temperature;humidity
37202;BME280;37799;52.390;6.136;2023-04-08T00:02:21;102236.31;;;3.09;100.00
37202;BME280;37799;52.390;6.136;2023-04-08T00:04:46;102237.94;;;3.06;100.00
37202;BME280;37799;52.390;6.136;2023-04-08T00:07:12;102241.25;;;3.02;100.00
37202;BME280;37799;52.390;6.136;2023-04-08T00:09:37;102242.00;;;2.99;100.00
37202;BME280;37799;52.390;6.136;2023-04-08T00:12:03;102237.66;;;2.96;100.00
37202;BME280;37799;52.390;6.136;2023-04-08T00:14:28;102244.34;;;2.91;100.00
37202;BME280;37799;52.390;6.136;2023-04-08T00:16:53;102240.97;;;2.92;100.00
37202;BME280;37799;52.390;6.136;2023-04-08T00:19:19;102250.22;;;2.87;100.00
37202;BME280;37799;52.390;6.136;2023-04-08T00:21:45;102246.09;;;2.92;100.00
37202;BME280;37799;52.390;6.136;2023-04-08T00:24:10;102246.09;;;2.92;100.00
37202;BME280;37799;52.390;6.136;2023-04-08T00:26:35;102247.81;;;2.93;100.00
37202;BME280;37799;52.390;6.136;2023-04-08T00:29:01;102250.91;;;2.82;100.00
37202;BME280;37799;52.390;6.136;2023-04-08T00:31:27;102252.25;;;2.69;100.00
37202;BME280;37799;52.390;6.136;2023-04-08T00:33:52;102256.22;;;2.59;100.00
37202;BME280;37799;52.390;6.136;2023-04-08T00:36:18;102256.91;;;2.54;100.00
37202;BME280;37799;52.390;6.136;2023-04-08T00:38:43;102265.22;;;2.47;100.00
37202;BME280;37799;52.390;6.136;2023-04-08T00:41:09;102261.56;;;2.39;100.00
37202;BME280;37799;52.390;6.136;2023-04-08T00:43:34;102266.47;;;2.32;100.00
37202;BME280;37799;52.390;6.136;2023-04-08T00:46:00;102266.34;;;2.28;100.00
37202;BME280;37799;52.390;6.136;2023-04-08T00:48:30;102266.97;;;2.21;100.00
37202;BME280;37799;52.390;6.136;2023-04-08T00:50:57;102266.78;;;2.15;100.00
37202;BME280;37799;52.390;6.136;2023-04-08T00:53:23;102271.78;;;2.10;100.00
37202;BME280;37799;52.390;6.136;2023-04-08T00:55:48;102268.22;;;2.06;100.00
37202;BME280;37799;52.390;6.136;2023-04-08T00:58:14;102269.97;;;2.07;100.00
37202;BME280;37799;52.390;6.136;2023-04-08T01:00:43;102267.19;;;2.00;100.00
37202;BME280;37799;52.390;6.136;2023-04-08T01:03:17;102279.75;;;1.94;100.00
37202;BME280;37799;52.390;6.136;2023-04-08T01:08:49;102276.78;;;1.82;100.00
37202;BME280;37799;52.390;6.136;2023-04-08T01:11:16;102274.97;;;1.77;100.00
37202;BME280;37799;52.390;6.136;2023-04-08T01:13:43;102280.84;;;1.75;100.00
37202;BME280;37799;52.390;6.136;2023-04-08T01:16:13;102274.03;;;1.75;100.00
37202;BME280;37799;52.390;6.136;2023-04-08T01:18:42;102282.53;;;1.74;100.00
37202;BME280;37799;52.390;6.136;2023-04-08T01:21:08;102270.31;;;1.66;100.00
37202;BME280;37799;52.390;6.136;2023-04-08T01:24:20;102278.88;;;1.68;100.00
37202;BME280;37799;52.390;6.136;2023-04-08T01:26:48;102285.91;;;1.73;100.00
37202;BME280;37799;52.390;6.136;2023-04-08T01:29:14;102283.25;;;1.70;100.00
37202;BME280;37799;52.390;6.136;2023-04-08T01:31:41;102288.44;;;1.73;100.00
37202;BME280;37799;52.390;6.136;2023-04-08T01:34:09;102294.34;;;1.71;100.00
37202;BME280;37799;52.390;6.136;2023-04-08T01:36:37;102289.19;;;1.69;100.00
37202;BME280;37799;52.390;6.136;2023-04-08T01:39:04;102281.50;;;1.69;100.00
37202;BME280;37799;52.390;6.136;2023-04-08T01:41:33;102291.59;;;1.66;100.00
37202;BME280;37799;52.390;6.136;2023-04-08T01:43:59;102293.16;;;1.61;100.00
37202;BME280;37799;52.390;6.136;2023-04-08T01:46:25;102288.81;;;1.59;100.00
37202;BME280;37799;52.390;6.136;2023-04-08T01:48:51;102292.19;;;1.58;100.00
37202;BME280;37799;52.390;6.136;2023-04-08T01:51:19;102296.09;;;1.48;100.00
37202;BME280;37799;52.390;6.136;2023-04-08T01:53:45;102298.38;;;1.40;100.00
37202;BME280;37799;52.390;6.136;2023-04-08T01:56:11;102292.84;;;1.28;100.00
37202;BME280;37799;52.390;6.136;2023-04-08T01:58:45;102290.41;;;1.31;100.00
37202;BME280;37799;52.390;6.136;2023-04-08T02:01:13;102291.16;;;1.29;100.00
37202;BME280;37799;52.390;6.136;2023-04-08T02:03:43;102296.81;;;1.20;100.00
37202;BME280;37799;52.390;6.136;2023-04-08T02:06:09;102292.41;;;1.16;100.00
37202;BME280;37799;52.390;6.136;2023-04-08T02:08:35;102293.81;;;1.08;100.00
37202;BME280;37799;52.390;6.136;2023-04-08T02:11:01;102299.59;;;1.04;100.00
37202;BME280;37799;52.390;6.136;2023-04-08T02:13:28;102297.81;;;1.01;100.00
37202;BME280;37799;52.390;6.136;2023-04-08T02:16:13;102297.66;;;0.97;100.00
37202;BME280;37799;52.390;6.136;2023-04-08T02:18:42;102296.91;;;0.99;100.00
37202;BME280;37799;52.390;6.136;2023-04-08T02:21:14;102308.16;;;1.04;100.00
37202;BME280;37799;52.390;6.136;2023-04-08T02:23:41;102304.66;;;1.02;100.00
37202;BME280;37799;52.390;6.136;2023-04-08T02:26:13;102310.31;;;0.94;100.00
37202;BME280;37799;52.390;6.136;2023-04-08T02:28:40;102309.50;;;0.95;100.00
37202;BME280;37799;52.390;6.136;2023-04-08T02:31:11;102315.34;;;0.92;100.00
37202;BME280;37799;52.390;6.136;2023-04-08T02:33:40;102319.44;;;0.88;100.00
37202;BME280;37799;52.390;6.136;2023-04-08T02:36:06;102318.47;;;0.85;100.00
37202;BME280;37799;52.390;6.136;2023-04-08T02:38:32;102308.97;;;0.81;100.00
37202;BME280;37799;52.390;6.136;2023-04-08T02:40:58;102317.25;;;0.75;100.00
37202;BME280;37799;52.390;6.136;2023-04-08T02:43:24;102316.34;;;0.73;100.00
37202;BME280;37799;52.390;6.136;2023-04-08T02:45:58;102320.47;;;0.70;100.00
37202;BME280;37799;52.390;6.136;2023-04-08T02:48:31;102319.53;;;0.68;100.00
37202;BME280;37799;52.390;6.136;2023-04-08T02:50:56;102319.75;;;0.74;100.00
37202;BME280;37799;52.390;6.136;2023-04-08T02:53:22;102325.16;;;0.81;100.00
37202;BME280;37799;52.390;6.136;2023-04-08T02:55:48;102336.13;;;0.79;100.00
37202;BME280;37799;52.390;6.136;2023-04-08T02:58:13;102330.59;;;0.68;100.00
37202;BME280;37799;52.390;6.136;2023-04-08T03:00:39;102331.22;;;0.63;100.00
37202;BME280;37799;52.390;6.136;2023-04-08T03:03:06;102340.13;;;0.51;100.00
37202;BME280;37799;52.390;6.136;2023-04-08T03:05:32;102338.28;;;0.47;100.00
37202;BME280;37799;52.390;6.136;2023-04-08T03:07:58;102337.47;;;0.48;100.00
37202;BME280;37799;52.390;6.136;2023-04-08T03:10:23;102344.13;;;0.45;100.00
37202;BME280;37799;52.390;6.136;2023-04-08T03:12:49;102342.50;;;0.47;100.00
37202;BME280;37799;52.390;6.136;2023-04-08T03:15:15;102341.75;;;0.49;100.00
37202;BME280;37799;52.390;6.136;2023-04-08T03:17:40;102342.81;;;0.54;100.00
37202;BME280;37799;52.390;6.136;2023-04-08T03:20:06;102352.09;;;0.52;100.00
37202;BME280;37799;52.390;6.136;2023-04-08T03:22:33;102344.34;;;0.51;100.00
37202;BME280;37799;52.390;6.136;2023-04-08T03:24:59;102348.94;;;0.59;100.00
37202;BME280;37799;52.390;6.136;2023-04-08T03:27:26;102355.09;;;0.65;100.00
37202;BME280;37799;52.390;6.136;2023-04-08T03:29:52;102343.84;;;0.59;100.00
37202;BME280;37799;52.390;6.136;2023-04-08T03:32:18;102347.09;;;0.55;100.00
37202;BME280;37799;52.390;6.136;2023-04-08T03:34:43;102350.09;;;0.45;100.00
37202;BME280;37799;52.390;6.136;2023-04-08T03:37:10;102348.97;;;0.39;100.00
37202;BME280;37799;52.390;6.136;2023-04-08T03:39:38;102347.91;;;0.34;100.00
37202;BME280;37799;52.390;6.136;2023-04-08T03:42:06;102351.78;;;0.24;100.00
37202;BME280;37799;52.390;6.136;2023-04-08T03:44:37;102347.31;;;0.18;100.00
37202;BME280;37799;52.390;6.136;2023-04-08T03:47:21;102349.00;;;0.18;100.00
37202;BME280;37799;52.390;6.136;2023-04-08T03:49:47;102351.22;;;0.10;100.00
37202;BME280;37799;52.390;6.136;2023-04-08T03:52:12;102345.38;;;0.13;100.00
37202;BME280;37799;52.390;6.136;2023-04-08T03:54:40;102353.50;;;0.25;100.00
37202;BME280;37799;52.390;6.136;2023-04-08T03:57:06;102352.34;;;0.17;100.00
37202;BME280;37799;52.390;6.136;2023-04-08T03:59:36;102353.16;;;0.16;100.00
37202;BME280;37799;52.390;6.136;2023-04-08T04:02:03;102362.66;;;0.20;100.00
37202;BME280;37799;52.390;6.136;2023-04-08T04:04:33;102359.69;;;0.30;100.00
37202;BME280;37799;52.390;6.136;2023-04-08T04:07:01;102367.00;;;0.22;100.00
37202;BME280;37799;52.390;6.136;2023-04-08T04:09:27;102356.56;;;0.16;100.00
37202;BME280;37799;52.390;6.136;2023-04-08T04:11:54;102365.16;;;0.18;100.00
37202;BME280;37799;52.390;6.136;2023-04-08T04:14:21;102357.94;;;0.29;100.00
37202;BME280;37799;52.390;6.136;2023-04-08T04:16:55;102365.81;;;0.35;100.00
37202;BME280;37799;52.390;6.136;2023-04-08T04:19:21;102363.09;;;0.31;100.00
37202;BME280;37799;52.390;6.136;2023-04-08T04:21:46;102377.44;;;0.28;100.00
37202;BME280;37799;52.390;6.136;2023-04-08T04:24:12;102369.88;;;0.30;100.00
37202;BME280;37799;52.390;6.136;2023-04-08T04:26:40;102369.38;;;0.18;100.00
37202;BME280;37799;52.390;6.136;2023-04-08T04:29:05;102380.25;;;0.14;100.00
37202;BME280;37799;52.390;6.136;2023-04-08T04:31:31;102377.50;;;0.09;100.00
37202;BME280;37799;52.390;6.136;2023-04-08T04:33:56;102373.84;;;0.03;100.00
37202;BME280;37799;52.390;6.136;2023-04-08T04:36:22;102384.09;;;0.04;100.00
37202;BME280;37799;52.390;6.136;2023-04-08T04:38:49;102385.63;;;0.01;100.00
37202;BME280;37799;52.390;6.136;2023-04-08T04:41:18;102381.25;;;-0.02;100.00
37202;BME280;37799;52.390;6.136;2023-04-08T04:43:44;102386.34;;;-0.02;100.00
37202;BME280;37799;52.390;6.136;2023-04-08T04:46:09;102390.53;;;-0.04;100.00
37202;BME280;37799;52.390;6.136;2023-04-08T04:48:35;102393.94;;;-0.04;100.00
37202;BME280;37799;52.390;6.136;2023-04-08T04:51:01;102399.72;;;-0.08;100.00
37202;BME280;37799;52.390;6.136;2023-04-08T04:53:28;102401.34;;;-0.10;100.00
37202;BME280;37799;52.390;6.136;2023-04-08T04:55:54;102399.72;;;-0.08;100.00
37202;BME280;37799;52.390;6.136;2023-04-08T04:58:21;102398.09;;;-0.06;100.00
37202;BME280;37799;52.390;6.136;2023-04-08T05:00:48;102402.38;;;-0.05;100.00
37202;BME280;37799;52.390;6.136;2023-04-08T05:03:13;102408.94;;;0.10;100.00
37202;BME280;37799;52.390;6.136;2023-04-08T05:05:40;102406.50;;;0.13;100.00
37202;BME280;37799;52.390;6.136;2023-04-08T05:08:05;102414.22;;;0.14;100.00
37202;BME280;37799;52.390;6.136;2023-04-08T05:10:31;102418.00;;;0.24;100.00
37202;BME280;37799;52.390;6.136;2023-04-08T05:12:57;102418.47;;;0.35;100.00
37202;BME280;37799;52.390;6.136;2023-04-08T05:15:22;102413.56;;;0.39;100.00
37202;BME280;37799;52.390;6.136;2023-04-08T05:17:48;102416.13;;;0.39;100.00
37202;BME280;37799;52.390;6.136;2023-04-08T05:20:13;102413.63;;;0.41;100.00
37202;BME280;37799;52.390;6.136;2023-04-08T05:22:38;102421.94;;;0.37;100.00
37202;BME280;37799;52.390;6.136;2023-04-08T05:25:04;102422.13;;;0.41;100.00
37202;BME280;37799;52.390;6.136;2023-04-08T05:27:30;102420.91;;;0.52;100.00
37202;BME280;37799;52.390;6.136;2023-04-08T05:29:56;102421.06;;;0.57;100.00
37202;BME280;37799;52.390;6.136;2023-04-08T05:32:21;102425.41;;;0.59;100.00
37202;BME280;37799;52.390;6.136;2023-04-08T05:34:46;102433.06;;;0.59;100.00
37202;BME280;37799;52.390;6.136;2023-04-08T05:37:12;102436.75;;;0.66;100.00
37202;BME280;37799;52.390;6.136;2023-04-08T05:39:37;102431.81;;;0.71;100.00
37202;BME280;37799;52.390;6.136;2023-04-08T05:42:03;102430.13;;;0.71;100.00
37202;BME280;37799;52.390;6.136;2023-04-08T05:44:28;102434.44;;;0.72;100.00
37202;BME280;37799;52.390;6.136;2023-04-08T05:46:53;102439.47;;;0.71;100.00
37202;BME280;37799;52.390;6.136;2023-04-08T05:49:20;102431.00;;;0.72;100.00
37202;BME280;37799;52.390;6.136;2023-04-08T05:51:45;102430.13;;;0.71;100.00
37202;BME280;37799;52.390;6.136;2023-04-08T05:54:10;102430.84;;;0.67;100.00
37202;BME280;37799;52.390;6.136;2023-04-08T05:56:36;102431.66;;;0.66;100.00
37202;BME280;37799;52.390;6.136;2023-04-08T05:59:01;102436.09;;;0.72;100.00
37202;BME280;37799;52.390;6.136;2023-04-08T06:01:26;102436.22;;;0.75;100.00
37202;BME280;37799;52.390;6.136;2023-04-08T06:03:52;102440.06;;;0.86;100.00
37202;BME280;37799;52.390;6.136;2023-04-08T06:06:19;102446.47;;;0.97;100.00
37202;BME280;37799;52.390;6.136;2023-04-08T06:08:45;102445.72;;;1.00;100.00
37202;BME280;37799;52.390;6.136;2023-04-08T06:11:11;102447.66;;;1.05;100.00
37202;BME280;37799;52.390;6.136;2023-04-08T06:13:36;102456.88;;;1.03;100.00
37202;BME280;37799;52.390;6.136;2023-04-08T06:16:13;102453.84;;;1.12;100.00
37202;BME280;37799;52.390;6.136;2023-04-08T06:18:39;102447.53;;;1.25;100.00
37202;BME280;37799;52.390;6.136;2023-04-08T06:21:04;102451.91;;;1.29;100.00
37202;BME280;37799;52.390;6.136;2023-04-08T06:23:30;102456.28;;;1.31;100.00
37202;BME280;37799;52.390;6.136;2023-04-08T06:25:55;102459.22;;;1.42;100.00
37202;BME280;37799;52.390;6.136;2023-04-08T06:28:21;102472.06;;;1.43;100.00
37202;BME280;37799;52.390;6.136;2023-04-08T06:30:46;102464.16;;;1.60;100.00
37202;BME280;37799;52.390;6.136;2023-04-08T06:33:12;102475.78;;;1.75;100.00
37202;BME280;37799;52.390;6.136;2023-04-08T06:35:37;102469.78;;;1.97;100.00
37202;BME280;37799;52.390;6.136;2023-04-08T06:38:03;102487.09;;;2.06;100.00
37202;BME280;37799;52.390;6.136;2023-04-08T06:40:28;102482.31;;;2.15;100.00
37202;BME280;37799;52.390;6.136;2023-04-08T06:42:54;102482.34;;;2.41;100.00
37202;BME280;37799;52.390;6.136;2023-04-08T06:45:21;102497.69;;;2.66;100.00
37202;BME280;37799;52.390;6.136;2023-04-08T06:47:47;102496.31;;;3.03;100.00
37202;BME280;37799;52.390;6.136;2023-04-08T06:50:12;102495.97;;;3.47;100.00
37202;BME280;37799;52.390;6.136;2023-04-08T06:52:38;102506.56;;;4.20;100.00
37202;BME280;37799;52.390;6.136;2023-04-08T06:55:03;102509.41;;;4.63;100.00
37202;BME280;37799;52.390;6.136;2023-04-08T06:57:29;102510.25;;;4.62;100.00
37202;BME280;37799;52.390;6.136;2023-04-08T06:59:54;102516.44;;;4.70;100.00
37202;BME280;37799;52.390;6.136;2023-04-08T07:02:20;102522.56;;;4.76;100.00
37202;BME280;37799;52.390;6.136;2023-04-08T07:04:47;102524.34;;;4.80;100.00
37202;BME280;37799;52.390;6.136;2023-04-08T07:07:15;102522.75;;;4.83;100.00
37202;BME280;37799;52.390;6.136;2023-04-08T07:09:40;102520.91;;;4.79;100.00
37202;BME280;37799;52.390;6.136;2023-04-08T07:12:10;102527.03;;;4.83;100.00
37202;BME280;37799;52.390;6.136;2023-04-08T07:14:35;102529.78;;;4.92;100.00
37202;BME280;37799;52.390;6.136;2023-04-08T07:17:00;102531.72;;;5.37;100.00
37202;BME280;37799;52.390;6.136;2023-04-08T07:19:26;102529.03;;;6.12;100.00
37202;BME280;37799;52.390;6.136;2023-04-08T07:21:51;102539.22;;;7.02;100.00
37202;BME280;37799;52.390;6.136;2023-04-08T07:24:17;102548.03;;;7.77;100.00
37202;BME280;37799;52.390;6.136;2023-04-08T07:26:43;102551.44;;;8.46;100.00
37202;BME280;37799;52.390;6.136;2023-04-08T07:29:08;102546.72;;;8.95;100.00
37202;BME280;37799;52.390;6.136;2023-04-08T07:31:34;102558.13;;;9.20;100.00
37202;BME280;37799;52.390;6.136;2023-04-08T07:34:00;102560.09;;;9.57;100.00
37202;BME280;37799;52.390;6.136;2023-04-08T07:36:25;102563.59;;;9.65;100.00
37202;BME280;37799;52.390;6.136;2023-04-08T07:38:50;102565.44;;;9.94;100.00
37202;BME280;37799;52.390;6.136;2023-04-08T07:41:16;102562.00;;;9.93;100.00
37202;BME280;37799;52.390;6.136;2023-04-08T07:43:41;102567.84;;;9.53;100.00
37202;BME280;37799;52.390;6.136;2023-04-08T07:46:06;102564.25;;;9.37;100.00
37202;BME280;37799;52.390;6.136;2023-04-08T07:48:33;102568.44;;;9.16;100.00
37202;BME280;37799;52.390;6.136;2023-04-08T07:51:03;102567.56;;;9.16;100.00
37202;BME280;37799;52.390;6.136;2023-04-08T07:53:33;102564.13;;;9.17;100.00
37202;BME280;37799;52.390;6.136;2023-04-08T07:55:59;102568.47;;;9.21;100.00
37202;BME280;37799;52.390;6.136;2023-04-08T07:58:27;102565.88;;;9.21;100.00
37202;BME280;37799;52.390;6.136;2023-04-08T08:00:59;102576.13;;;9.07;100.00
37202;BME280;37799;52.390;6.136;2023-04-08T08:03:26;102567.84;;;9.59;100.00
37202;BME280;37799;52.390;6.136;2023-04-08T08:06:14;102588.66;;;9.77;100.00
37202;BME280;37799;52.390;6.136;2023-04-08T08:08:45;102591.03;;;9.42;100.00
37202;BME280;37799;52.390;6.136;2023-04-08T08:11:13;102583.09;;;9.19;100.00
37202;BME280;37799;52.390;6.136;2023-04-08T08:13:55;102581.25;;;9.03;100.00
37202;BME280;37799;52.390;6.136;2023-04-08T08:16:47;102578.59;;;8.98;100.00
37202;BME280;37799;52.390;6.136;2023-04-08T08:19:41;102583.09;;;9.16;100.00
37202;BME280;37799;52.390;6.136;2023-04-08T08:22:19;102582.19;;;9.12;100.00
37202;BME280;37799;52.390;6.136;2023-04-08T08:25:08;102586.53;;;9.15;100.00
37202;BME280;37799;52.390;6.136;2023-04-08T08:27:35;102590.75;;;9.07;100.00
37202;BME280;37799;52.390;6.136;2023-04-08T08:30:04;102589.03;;;9.09;100.00
37202;BME280;37799;52.390;6.136;2023-04-08T08:32:41;102589.13;;;9.18;100.00
37202;BME280;37799;52.390;6.136;2023-04-08T08:35:10;102590.81;;;9.14;100.00
37202;BME280;37799;52.390;6.136;2023-04-08T08:37:36;102587.41;;;9.19;100.00
37202;BME280;37799;52.390;6.136;2023-04-08T08:40:02;102596.88;;;9.15;100.00
37202;BME280;37799;52.390;6.136;2023-04-08T08:42:54;102595.34;;;9.46;100.00
37202;BME280;37799;52.390;6.136;2023-04-08T08:45:42;102592.06;;;9.70;100.00
37202;BME280;37799;52.390;6.136;2023-04-08T08:48:08;102592.22;;;10.02;100.00
37202;BME280;37799;52.390;6.136;2023-04-08T08:50:35;102597.53;;;10.26;100.00
37202;BME280;37799;52.390;6.136;2023-04-08T08:53:01;102595.00;;;10.48;100.00
37202;BME280;37799;52.390;6.136;2023-04-08T08:55:30;102599.34;;;10.64;100.00
37202;BME280;37799;52.390;6.136;2023-04-08T08:58:05;102601.09;;;10.73;100.00
37202;BME280;37799;52.390;6.136;2023-04-08T09:00:36;102606.31;;;10.94;100.00
37202;BME280;37799;52.390;6.136;2023-04-08T09:03:20;102614.06;;;10.83;100.00
37202;BME280;37799;52.390;6.136;2023-04-08T09:05:51;102616.66;;;10.79;100.00
37202;BME280;37799;52.390;6.136;2023-04-08T09:08:31;102617.56;;;11.13;100.00
37202;BME280;37799;52.390;6.136;2023-04-08T09:11:17;102614.91;;;11.86;100.00
37202;BME280;37799;52.390;6.136;2023-04-08T09:13:47;102606.00;;;12.40;100.00
37202;BME280;37799;52.390;6.136;2023-04-08T09:16:30;102610.09;;;12.80;100.00
37202;BME280;37799;52.390;6.136;2023-04-08T09:19:09;102612.41;;;13.18;100.00
37202;BME280;37799;52.390;6.136;2023-04-08T09:21:37;102610.63;;;13.29;100.00
37202;BME280;37799;52.390;6.136;2023-04-08T09:24:06;102618.94;;;13.65;100.00
37202;BME280;37799;52.390;6.136;2023-04-08T09:26:36;102620.34;;;13.93;100.00
37202;BME280;37799;52.390;6.136;2023-04-08T09:29:08;102628.91;;;14.04;100.00
37202;BME280;37799;52.390;6.136;2023-04-08T09:31:45;102632.97;;;14.27;100.00
37202;BME280;37799;52.390;6.136;2023-04-08T09:34:20;102641.03;;;14.05;100.00
37202;BME280;37799;52.390;6.136;2023-04-08T09:36:51;102645.47;;;13.99;100.00
37202;BME280;37799;52.390;6.136;2023-04-08T09:39:17;102639.38;;;14.01;100.00
37202;BME280;37799;52.390;6.136;2023-04-08T09:41:43;102638.97;;;14.35;100.00
37202;BME280;37799;52.390;6.136;2023-04-08T09:44:13;102645.78;;;14.45;100.00
37202;BME280;37799;52.390;6.136;2023-04-08T09:47:09;102651.00;;;14.48;100.00
37202;BME280;37799;52.390;6.136;2023-04-08T09:49:54;102652.38;;;14.01;100.00
37202;BME280;37799;52.390;6.136;2023-04-08T09:53:01;102644.03;;;13.72;100.00
37202;BME280;37799;52.390;6.136;2023-04-08T09:55:33;102643.06;;;13.82;100.00
37202;BME280;37799;52.390;6.136;2023-04-08T09:58:07;102646.38;;;13.93;100.00
37202;BME280;37799;52.390;6.136;2023-04-08T10:00:41;102642.13;;;13.87;100.00
37202;BME280;37799;52.390;6.136;2023-04-08T10:03:38;102635.44;;;14.37;100.00
37202;BME280;37799;52.390;6.136;2023-04-08T10:06:05;102641.91;;;14.77;100.00
37202;BME280;37799;52.390;6.136;2023-04-08T10:08:36;102639.34;;;15.27;100.00
37202;BME280;37799;52.390;6.136;2023-04-08T10:11:04;102647.47;;;15.61;100.00
37202;BME280;37799;52.390;6.136;2023-04-08T10:13:31;102647.16;;;15.80;99.76
37202;BME280;37799;52.390;6.136;2023-04-08T10:16:17;102640.69;;;15.98;100.00
37202;BME280;37799;52.390;6.136;2023-04-08T10:18:52;102652.28;;;16.29;96.14
37202;BME280;37799;52.390;6.136;2023-04-08T10:21:34;102653.03;;;16.34;90.48
37202;BME280;37799;52.390;6.136;2023-04-08T10:24:00;102650.06;;;16.49;97.06
37202;BME280;37799;52.390;6.136;2023-04-08T10:26:35;102651.44;;;16.26;89.01
37202;BME280;37799;52.390;6.136;2023-04-08T10:31:41;102645.16;;;15.92;100.00
37202;BME280;37799;52.390;6.136;2023-04-08T10:34:20;102653.47;;;16.13;100.00
37202;BME280;37799;52.390;6.136;2023-04-08T10:36:46;102648.81;;;15.84;100.00
37202;BME280;37799;52.390;6.136;2023-04-08T10:39:13;102643.31;;;15.50;100.00
37202;BME280;37799;52.390;6.136;2023-04-08T10:41:42;102639.16;;;15.40;100.00
37202;BME280;37799;52.390;6.136;2023-04-08T10:44:19;102633.59;;;15.07;100.00
37202;BME280;37799;52.390;6.136;2023-04-08T10:46:46;102625.03;;;14.99;100.00
37202;BME280;37799;52.390;6.136;2023-04-08T10:49:13;102621.13;;;14.69;100.00
37202;BME280;37799;52.390;6.136;2023-04-08T10:51:40;102612.50;;;14.65;100.00
37202;BME280;37799;52.390;6.136;2023-04-08T10:54:07;102618.88;;;14.44;100.00
37202;BME280;37799;52.390;6.136;2023-04-08T10:56:35;102617.88;;;14.53;100.00
37202;BME280;37799;52.390;6.136;2023-04-08T10:59:01;102618.00;;;14.47;100.00
37202;BME280;37799;52.390;6.136;2023-04-08T11:01:37;102615.81;;;14.12;100.00
37202;BME280;37799;52.390;6.136;2023-04-08T11:04:24;102623.75;;;14.01;100.00
37202;BME280;37799;52.390;6.136;2023-04-08T11:06:49;102614.19;;;14.00;100.00
37202;BME280;37799;52.390;6.136;2023-04-08T11:09:16;102618.56;;;13.98;100.00
37202;BME280;37799;52.390;6.136;2023-04-08T11:11:43;102612.59;;;13.88;100.00
37202;BME280;37799;52.390;6.136;2023-04-08T11:14:09;102619.38;;;14.02;100.00
37202;BME280;37799;52.390;6.136;2023-04-08T11:16:37;102619.03;;;14.31;100.00
37202;BME280;37799;52.390;6.136;2023-04-08T11:19:04;102624.75;;;14.60;100.00
37202;BME280;37799;52.390;6.136;2023-04-08T11:21:31;102620.56;;;14.49;100.00
37202;BME280;37799;52.390;6.136;2023-04-08T11:24:16;102623.28;;;14.38;100.00
37202;BME280;37799;52.390;6.136;2023-04-08T11:26:46;102623.44;;;14.26;100.00
37202;BME280;37799;52.390;6.136;2023-04-08T11:29:12;102620.16;;;14.10;100.00
37202;BME280;37799;52.390;6.136;2023-04-08T11:31:44;102608.88;;;14.11;100.00
37202;BME280;37799;52.390;6.136;2023-04-08T11:34:11;102618.53;;;14.01;100.00
37202;BME280;37799;52.390;6.136;2023-04-08T11:36:41;102623.97;;;13.80;100.00
37202;BME280;37799;52.390;6.136;2023-04-08T11:39:13;102615.72;;;13.41;100.00
37202;BME280;37799;52.390;6.136;2023-04-08T11:41:46;102612.13;;;13.54;100.00
37202;BME280;37799;52.390;6.136;2023-04-08T11:44:28;102615.56;;;13.53;100.00
37202;BME280;37799;52.390;6.136;2023-04-08T11:46:53;102615.56;;;13.56;100.00
37202;BME280;37799;52.390;6.136;2023-04-08T11:49:19;102613.38;;;13.98;100.00
37202;BME280;37799;52.390;6.136;2023-04-08T11:51:59;102620.72;;;14.35;100.00
37202;BME280;37799;52.390;6.136;2023-04-08T11:54:30;102614.78;;;14.88;100.00
37202;BME280;37799;52.390;6.136;2023-04-08T11:56:56;102625.25;;;15.38;100.00
37202;BME280;37799;52.390;6.136;2023-04-08T11:59:24;102626.63;;;15.58;100.00
37202;BME280;37799;52.390;6.136;2023-04-08T12:01:52;102624.91;;;16.04;100.00
37202;BME280;37799;52.390;6.136;2023-04-08T12:04:18;102620.81;;;16.32;99.82
37202;BME280;37799;52.390;6.136;2023-04-08T12:06:45;102621.97;;;16.19;99.41
37202;BME280;37799;52.390;6.136;2023-04-08T12:09:14;102624.63;;;16.17;98.17
37202;BME280;37799;52.390;6.136;2023-04-08T12:11:39;102620.59;;;16.43;100.00
37202;BME280;37799;52.390;6.136;2023-04-08T12:14:05;102631.69;;;16.52;97.49
37202;BME280;37799;52.390;6.136;2023-04-08T12:16:31;102633.91;;;16.32;92.94
37202;BME280;37799;52.390;6.136;2023-04-08T12:18:57;102630.72;;;16.58;96.48
37202;BME280;37799;52.390;6.136;2023-04-08T12:21:31;102620.00;;;16.70;94.14
37202;BME280;37799;52.390;6.136;2023-04-08T12:23:58;102626.75;;;16.80;94.08
37202;BME280;37799;52.390;6.136;2023-04-08T12:26:24;102627.31;;;16.93;90.06
37202;BME280;37799;52.390;6.136;2023-04-08T12:28:52;102621.84;;;17.02;89.14
37202;BME280;37799;52.390;6.136;2023-04-08T12:31:18;102624.38;;;17.07;93.46
37202;BME280;37799;52.390;6.136;2023-04-08T12:33:46;102624.03;;;17.53;95.52
37202;BME280;37799;52.390;6.136;2023-04-08T12:36:12;102622.91;;;17.63;93.81
37202;BME280;37799;52.390;6.136;2023-04-08T12:38:41;102626.34;;;17.33;90.46
37202;BME280;37799;52.390;6.136;2023-04-08T12:41:14;102626.34;;;17.33;95.90
37202;BME280;37799;52.390;6.136;2023-04-08T12:43:40;102629.31;;;17.19;89.51
37202;BME280;37799;52.390;6.136;2023-04-08T12:46:21;102620.41;;;16.89;92.58
37202;BME280;37799;52.390;6.136;2023-04-08T12:48:48;102620.66;;;16.80;93.66
37202;BME280;37799;52.390;6.136;2023-04-08T12:51:15;102622.94;;;16.94;92.97
37202;BME280;37799;52.390;6.136;2023-04-08T12:53:42;102615.06;;;16.95;91.37
37202;BME280;37799;52.390;6.136;2023-04-08T12:56:07;102613.16;;;16.63;93.50
37202;BME280;37799;52.390;6.136;2023-04-08T12:58:33;102613.66;;;16.42;96.15
37202;BME280;37799;52.390;6.136;2023-04-08T13:00:58;102612.06;;;16.35;100.00
37202;BME280;37799;52.390;6.136;2023-04-08T13:03:23;102612.78;;;16.00;94.95